sensor_id;sensor_type;location;lat;lon;timestamp;P1;durP1;ratioP1;P2;durP2;ratioP2
41952;SDS011;63613;28.200;112.870;2024-03-22T00:00:49;14.68;;;10.68;;
41952;SDS011;63613;28.200;112.870;2024-03-22T00:03:18;14.27;;;10.90;;
41952;SDS011;63613;28.200;112.870;2024-03-22T00:05:47;14.88;;;11.27;;
41952;SDS011;63613;28.200;112.870;2024-03-22T00:08:16;15.00;;;11.20;;
41952;SDS011;63613;28.200;112.870;2024-03-22T00:10:45;13.48;;;10.93;;
41952;SDS011;63613;28.200;112.870;2024-03-22T00:13:15;14.65;;;11.15;;
41952;SDS011;63613;28.200;112.870;2024-03-22T00:15:43;15.30;;;11.93;;
41952;SDS011;63613;28.200;112.870;2024-03-22T00:18:12;14.40;;;11.02;;
41952;SDS011;63613;28.200;112.870;2024-03-22T00:20:42;15.40;;;11.50;;
41952;SDS011;63613;28.200;112.870;2024-03-22T00:23:10;15.82;;;10.90;;
41952;SDS011;63613;28.200;112.870;2024-03-22T00:25:39;15.13;;;11.85;;
41952;SDS011;63613;28.200;112.870;2024-03-22T00:28:08;15.88;;;11.25;;
41952;SDS011;63613;28.200;112.870;2024-03-22T00:30:37;16.13;;;11.30;;
41952;SDS011;63613;28.200;112.870;2024-03-22T00:33:07;15.23;;;11.07;;
41952;SDS011;63613;28.200;112.870;2024-03-22T00:35:35;16.10;;;11.23;;
41952;SDS011;63613;28.200;112.870;2024-03-22T00:38:04;14.35;;;10.85;;
41952;SDS011;63613;28.200;112.870;2024-03-22T00:40:33;15.93;;;11.77;;
41952;SDS011;63613;28.200;112.870;2024-03-22T00:43:02;15.50;;;11.68;;
41952;SDS011;63613;28.200;112.870;2024-03-22T00:45:31;15.88;;;11.90;;
41952;SDS011;63613;28.200;112.870;2024-03-22T00:48:00;14.68;;;11.30;;
41952;SDS011;63613;28.200;112.870;2024-03-22T00:50:29;16.08;;;10.93;;
41952;SDS011;63613;28.200;112.870;2024-03-22T00:52:57;15.32;;;10.65;;
41952;SDS011;63613;28.200;112.870;2024-03-22T00:55:29;17.95;;;12.23;;
41952;SDS011;63613;28.200;112.870;2024-03-22T00:57:59;16.70;;;11.45;;
41952;SDS011;63613;28.200;112.870;2024-03-22T01:00:28;15.43;;;11.68;;
41952;SDS011;63613;28.200;112.870;2024-03-22T01:02:57;17.50;;;11.55;;
41952;SDS011;63613;28.200;112.870;2024-03-22T01:05:25;18.77;;;11.95;;
41952;SDS011;63613;28.200;112.870;2024-03-22T01:07:54;17.20;;;10.90;;
41952;SDS011;63613;28.200;112.870;2024-03-22T01:10:24;14.48;;;11.85;;
41952;SDS011;63613;28.200;112.870;2024-03-22T01:12:53;16.13;;;11.60;;
41952;SDS011;63613;28.200;112.870;2024-03-22T01:15:22;16.15;;;11.82;;
41952;SDS011;63613;28.200;112.870;2024-03-22T01:17:52;15.93;;;10.88;;
41952;SDS011;63613;28.200;112.870;2024-03-22T01:20:21;16.23;;;11.75;;
41952;SDS011;63613;28.200;112.870;2024-03-22T01:22:50;15.80;;;11.27;;
41952;SDS011;63613;28.200;112.870;2024-03-22T01:25:19;15.02;;;11.15;;
41952;SDS011;63613;28.200;112.870;2024-03-22T01:27:48;20.27;;;12.18;;
41952;SDS011;63613;28.200;112.870;2024-03-22T01:30:16;14.60;;;10.60;;
41952;SDS011;63613;28.200;112.870;2024-03-22T01:32:46;17.55;;;11.60;;
41952;SDS011;63613;28.200;112.870;2024-03-22T01:35:15;15.95;;;11.10;;
41952;SDS011;63613;28.200;112.870;2024-03-22T01:37:44;33.53;;;19.98;;
41952;SDS011;63613;28.200;112.870;2024-03-22T01:40:13;29.35;;;18.58;;
41952;SDS011;63613;28.200;112.870;2024-03-22T01:42:42;37.58;;;20.63;;
41952;SDS011;63613;28.200;112.870;2024-03-22T01:45:11;34.63;;;21.80;;
41952;SDS011;63613;28.200;112.870;2024-03-22T01:47:43;34.20;;;20.65;;
41952;SDS011;63613;28.200;112.870;2024-03-22T01:50:13;33.25;;;20.85;;
41952;SDS011;63613;28.200;112.870;2024-03-22T01:52:41;38.78;;;22.23;;
41952;SDS011;63613;28.200;112.870;2024-03-22T01:55:10;39.75;;;23.35;;
41952;SDS011;63613;28.200;112.870;2024-03-22T01:57:39;37.63;;;22.42;;
41952;SDS011;63613;28.200;112.870;2024-03-22T02:00:09;33.15;;;20.98;;
41952;SDS011;63613;28.200;112.870;2024-03-22T02:02:38;34.50;;;21.75;;
41952;SDS011;63613;28.200;112.870;2024-03-22T02:05:15;33.42;;;23.00;;
41952;SDS011;63613;28.200;112.870;2024-03-22T02:07:46;34.97;;;21.80;;
41952;SDS011;63613;28.200;112.870;2024-03-22T02:10:16;34.80;;;23.55;;
41952;SDS011;63613;28.200;112.870;2024-03-22T02:12:45;42.38;;;22.73;;
41952;SDS011;63613;28.200;112.870;2024-03-22T02:15:14;40.33;;;21.67;;
41952;SDS011;63613;28.200;112.870;2024-03-22T02:17:43;40.25;;;22.42;;
41952;SDS011;63613;28.200;112.870;2024-03-22T02:20:11;34.22;;;22.40;;
41952;SDS011;63613;28.200;112.870;2024-03-22T02:22:41;38.40;;;22.30;;
41952;SDS011;63613;28.200;112.870;2024-03-22T02:25:10;41.45;;;22.77;;
41952;SDS011;63613;28.200;112.870;2024-03-22T02:27:38;36.53;;;23.13;;
41952;SDS011;63613;28.200;112.870;2024-03-22T02:30:08;35.42;;;22.55;;
41952;SDS011;63613;28.200;112.870;2024-03-22T02:32:37;39.42;;;20.50;;
41952;SDS011;63613;28.200;112.870;2024-03-22T02:35:08;38.90;;;21.60;;
41952;SDS011;63613;28.200;112.870;2024-03-22T02:37:37;35.40;;;22.30;;
41952;SDS011;63613;28.200;112.870;2024-03-22T02:40:06;34.53;;;22.02;;
41952;SDS011;63613;28.200;112.870;2024-03-22T02:42:35;35.45;;;21.30;;
41952;SDS011;63613;28.200;112.870;2024-03-22T02:45:04;42.00;;;22.98;;
41952;SDS011;63613;28.200;112.870;2024-03-22T02:47:34;36.80;;;21.25;;
41952;SDS011;63613;28.200;112.870;2024-03-22T02:50:02;40.33;;;23.58;;
41952;SDS011;63613;28.200;112.870;2024-03-22T02:52:32;32.00;;;22.08;;
41952;SDS011;63613;28.200;112.870;2024-03-22T02:55:00;36.22;;;21.90;;
41952;SDS011;63613;28.200;112.870;2024-03-22T02:57:29;40.05;;;21.63;;
41952;SDS011;63613;28.200;112.870;2024-03-22T03:00:00;34.35;;;22.80;;
41952;SDS011;63613;28.200;112.870;2024-03-22T03:02:29;39.83;;;22.10;;
41952;SDS011;63613;28.200;112.870;2024-03-22T03:04:58;43.05;;;22.98;;
41952;SDS011;63613;28.200;112.870;2024-03-22T03:07:27;39.75;;;23.88;;
41952;SDS011;63613;28.200;112.870;2024-03-22T03:09:56;31.05;;;21.52;;
41952;SDS011;63613;28.200;112.870;2024-03-22T03:12:26;31.65;;;21.20;;
41952;SDS011;63613;28.200;112.870;2024-03-22T03:14:54;33.50;;;21.88;;
41952;SDS011;63613;28.200;112.870;2024-03-22T03:17:24;37.90;;;22.10;;
41952;SDS011;63613;28.200;112.870;2024-03-22T03:19:53;35.17;;;21.73;;
41952;SDS011;63613;28.200;112.870;2024-03-22T03:22:22;33.85;;;21.58;;
41952;SDS011;63613;28.200;112.870;2024-03-22T03:24:52;34.78;;;23.17;;
41952;SDS011;63613;28.200;112.870;2024-03-22T03:27:20;35.80;;;23.60;;
41952;SDS011;63613;28.200;112.870;2024-03-22T03:29:49;33.63;;;22.20;;
41952;SDS011;63613;28.200;112.870;2024-03-22T03:32:18;34.47;;;22.02;;
41952;SDS011;63613;28.200;112.870;2024-03-22T03:34:47;38.80;;;22.73;;
41952;SDS011;63613;28.200;112.870;2024-03-22T03:37:16;30.60;;;22.10;;
41952;SDS011;63613;28.200;112.870;2024-03-22T03:39:45;38.45;;;23.55;;
41952;SDS011;63613;28.200;112.870;2024-03-22T03:42:13;39.22;;;22.42;;
41952;SDS011;63613;28.200;112.870;2024-03-22T03:44:42;32.72;;;22.52;;
41952;SDS011;63613;28.200;112.870;2024-03-22T03:47:11;34.28;;;22.92;;
41952;SDS011;63613;28.200;112.870;2024-03-22T03:49:40;35.45;;;22.33;;
41952;SDS011;63613;28.200;112.870;2024-03-22T03:52:09;33.88;;;22.67;;
41952;SDS011;63613;28.200;112.870;2024-03-22T03:54:38;35.42;;;22.65;;
41952;SDS011;63613;28.200;112.870;2024-03-22T03:57:07;41.42;;;23.50;;
41952;SDS011;63613;28.200;112.870;2024-03-22T03:59:36;36.42;;;21.58;;
41952;SDS011;63613;28.200;112.870;2024-03-22T04:02:05;30.30;;;21.02;;
41952;SDS011;63613;28.200;112.870;2024-03-22T04:04:34;36.83;;;23.60;;
41952;SDS011;63613;28.200;112.870;2024-03-22T04:07:03;33.70;;;23.38;;
41952;SDS011;63613;28.200;112.870;2024-03-22T04:09:32;32.13;;;20.30;;
41952;SDS011;63613;28.200;112.870;2024-03-22T04:12:01;36.13;;;21.38;;
41952;SDS011;63613;28.200;112.870;2024-03-22T04:14:35;45.15;;;26.52;;
41952;SDS011;63613;28.200;112.870;2024-03-22T04:17:04;43.67;;;23.90;;
41952;SDS011;63613;28.200;112.870;2024-03-22T04:19:33;39.85;;;23.83;;
41952;SDS011;63613;28.200;112.870;2024-03-22T04:22:01;40.80;;;24.55;;
41952;SDS011;63613;28.200;112.870;2024-03-22T04:24:30;34.25;;;22.42;;
41952;SDS011;63613;28.200;112.870;2024-03-22T04:27:00;37.13;;;22.60;;
41952;SDS011;63613;28.200;112.870;2024-03-22T04:29:29;34.20;;;22.13;;
41952;SDS011;63613;28.200;112.870;2024-03-22T04:31:58;34.08;;;21.33;;
41952;SDS011;63613;28.200;112.870;2024-03-22T04:34:27;31.70;;;19.55;;
41952;SDS011;63613;28.200;112.870;2024-03-22T04:36:55;33.38;;;19.85;;
41952;SDS011;63613;28.200;112.870;2024-03-22T04:39:25;31.38;;;19.50;;
41952;SDS011;63613;28.200;112.870;2024-03-22T04:41:54;31.55;;;21.23;;
41952;SDS011;63613;28.200;112.870;2024-03-22T04:44:22;33.63;;;20.65;;
41952;SDS011;63613;28.200;112.870;2024-03-22T04:46:51;32.55;;;21.58;;
41952;SDS011;63613;28.200;112.870;2024-03-22T04:49:20;40.20;;;24.73;;
41952;SDS011;63613;28.200;112.870;2024-03-22T04:51:49;34.88;;;20.67;;
41952;SDS011;63613;28.200;112.870;2024-03-22T04:54:18;35.25;;;23.90;;
41952;SDS011;63613;28.200;112.870;2024-03-22T04:56:47;34.45;;;22.80;;
41952;SDS011;63613;28.200;112.870;2024-03-22T04:59:17;34.33;;;21.23;;
41952;SDS011;63613;28.200;112.870;2024-03-22T05:01:46;32.45;;;21.33;;
41952;SDS011;63613;28.200;112.870;2024-03-22T05:04:15;32.20;;;21.55;;
41952;SDS011;63613;28.200;112.870;2024-03-22T05:06:44;29.20;;;20.77;;
41952;SDS011;63613;28.200;112.870;2024-03-22T05:09:13;32.58;;;22.25;;
41952;SDS011;63613;28.200;112.870;2024-03-22T05:11:42;34.53;;;23.30;;
41952;SDS011;63613;28.200;112.870;2024-03-22T05:14:16;35.92;;;22.67;;
41952;SDS011;63613;28.200;112.870;2024-03-22T05:16:46;33.83;;;21.90;;
41952;SDS011;63613;28.200;112.870;2024-03-22T05:19:16;29.80;;;21.05;;
41952;SDS011;63613;28.200;112.870;2024-03-22T05:21:45;37.10;;;23.50;;
41952;SDS011;63613;28.200;112.870;2024-03-22T05:24:13;34.83;;;22.17;;
41952;SDS011;63613;28.200;112.870;2024-03-22T05:26:43;31.23;;;21.52;;
41952;SDS011;63613;28.200;112.870;2024-03-22T05:29:12;32.40;;;23.02;;
41952;SDS011;63613;28.200;112.870;2024-03-22T05:31:49;28.23;;;21.00;;
41952;SDS011;63613;28.200;112.870;2024-03-22T05:34:18;36.17;;;23.70;;
41952;SDS011;63613;28.200;112.870;2024-03-22T05:36:48;31.35;;;21.83;;
41952;SDS011;63613;28.200;112.870;2024-03-22T05:39:17;33.42;;;22.75;;
41952;SDS011;63613;28.200;112.870;2024-03-22T05:41:45;32.35;;;22.08;;
41952;SDS011;63613;28.200;112.870;2024-03-22T05:44:14;30.65;;;21.35;;
41952;SDS011;63613;28.200;112.870;2024-03-22T05:46:43;30.63;;;20.50;;
41952;SDS011;63613;28.200;112.870;2024-03-22T05:49:12;36.95;;;22.42;;
41952;SDS011;63613;28.200;112.870;2024-03-22T05:51:41;29.30;;;19.67;;
41952;SDS011;63613;28.200;112.870;2024-03-22T05:54:10;33.90;;;22.02;;
41952;SDS011;63613;28.200;112.870;2024-03-22T05:56:39;27.35;;;19.67;;
41952;SDS011;63613;28.200;112.870;2024-03-22T05:59:08;33.90;;;19.27;;
41952;SDS011;63613;28.200;112.870;2024-03-22T06:01:37;27.15;;;19.65;;
41952;SDS011;63613;28.200;112.870;2024-03-22T06:04:06;28.15;;;18.60;;
41952;SDS011;63613;28.200;112.870;2024-03-22T06:06:35;26.58;;;19.92;;
41952;SDS011;63613;28.200;112.870;2024-03-22T06:09:04;28.08;;;18.88;;
41952;SDS011;63613;28.200;112.870;2024-03-22T06:11:37;27.35;;;18.83;;
41952;SDS011;63613;28.200;112.870;2024-03-22T06:14:10;29.77;;;18.75;;
41952;SDS011;63613;28.200;112.870;2024-03-22T06:16:38;26.80;;;19.20;;
41952;SDS011;63613;28.200;112.870;2024-03-22T06:19:07;26.10;;;19.13;;
41952;SDS011;63613;28.200;112.870;2024-03-22T06:21:36;27.08;;;19.08;;
41952;SDS011;63613;28.200;112.870;2024-03-22T06:24:05;22.45;;;18.27;;
41952;SDS011;63613;28.200;112.870;2024-03-22T06:26:35;24.27;;;17.67;;
41952;SDS011;63613;28.200;112.870;2024-03-22T06:29:04;26.98;;;18.25;;
41952;SDS011;63613;28.200;112.870;2024-03-22T06:31:33;28.73;;;18.33;;
41952;SDS011;63613;28.200;112.870;2024-03-22T06:34:01;26.30;;;17.50;;
41952;SDS011;63613;28.200;112.870;2024-03-22T06:36:31;26.77;;;18.65;;
41952;SDS011;63613;28.200;112.870;2024-03-22T06:39:00;23.85;;;17.95;;
41952;SDS011;63613;28.200;112.870;2024-03-22T06:41:33;23.13;;;17.33;;
41952;SDS011;63613;28.200;112.870;2024-03-22T06:44:02;27.45;;;18.40;;
41952;SDS011;63613;28.200;112.870;2024-03-22T06:46:31;24.60;;;17.67;;
41952;SDS011;63613;28.200;112.870;2024-03-22T06:49:00;25.77;;;18.85;;
41952;SDS011;63613;28.200;112.870;2024-03-22T06:51:29;22.50;;;16.33;;
41952;SDS011;63613;28.200;112.870;2024-03-22T06:53:58;29.13;;;16.60;;
41952;SDS011;63613;28.200;112.870;2024-03-22T06:56:26;22.23;;;17.63;;
41952;SDS011;63613;28.200;112.870;2024-03-22T06:58:57;25.38;;;17.58;;
41952;SDS011;63613;28.200;112.870;2024-03-22T07:01:26;25.15;;;16.08;;
41952;SDS011;63613;28.200;112.870;2024-03-22T07:03:55;24.15;;;17.30;;
41952;SDS011;63613;28.200;112.870;2024-03-22T07:06:24;26.67;;;16.55;;
41952;SDS011;63613;28.200;112.870;2024-03-22T07:08:53;28.90;;;19.15;;
41952;SDS011;63613;28.200;112.870;2024-03-22T07:11:22;22.75;;;17.60;;
41952;SDS011;63613;28.200;112.870;2024-03-22T07:13:51;23.33;;;16.77;;
41952;SDS011;63613;28.200;112.870;2024-03-22T07:16:19;22.58;;;16.80;;
41952;SDS011;63613;28.200;112.870;2024-03-22T07:18:48;28.73;;;18.10;;
41952;SDS011;63613;28.200;112.870;2024-03-22T07:21:17;23.80;;;17.90;;
41952;SDS011;63613;28.200;112.870;2024-03-22T07:23:47;24.38;;;17.80;;
41952;SDS011;63613;28.200;112.870;2024-03-22T07:26:15;21.65;;;16.58;;
41952;SDS011;63613;28.200;112.870;2024-03-22T07:28:44;27.13;;;19.10;;
41952;SDS011;63613;28.200;112.870;2024-03-22T07:31:13;23.35;;;17.25;;
41952;SDS011;63613;28.200;112.870;2024-03-22T07:33:41;23.58;;;18.02;;
41952;SDS011;63613;28.200;112.870;2024-03-22T07:36:10;25.45;;;17.88;;
41952;SDS011;63613;28.200;112.870;2024-03-22T07:38:39;24.45;;;17.30;;
41952;SDS011;63613;28.200;112.870;2024-03-22T07:41:08;24.67;;;17.65;;
41952;SDS011;63613;28.200;112.870;2024-03-22T07:43:37;27.85;;;18.20;;
41952;SDS011;63613;28.200;112.870;2024-03-22T07:46:05;22.48;;;17.80;;
41952;SDS011;63613;28.200;112.870;2024-03-22T07:48:35;24.83;;;16.88;;
41952;SDS011;63613;28.200;112.870;2024-03-22T07:51:03;21.40;;;16.45;;
41952;SDS011;63613;28.200;112.870;2024-03-22T07:53:32;31.77;;;18.33;;
41952;SDS011;63613;28.200;112.870;2024-03-22T07:56:00;19.83;;;16.85;;
41952;SDS011;63613;28.200;112.870;2024-03-22T07:58:29;22.05;;;17.13;;
41952;SDS011;63613;28.200;112.870;2024-03-22T08:00:58;24.40;;;17.50;;
41952;SDS011;63613;28.200;112.870;2024-03-22T08:03:28;24.10;;;17.30;;
41952;SDS011;63613;28.200;112.870;2024-03-22T08:05:56;25.48;;;17.58;;
41952;SDS011;63613;28.200;112.870;2024-03-22T08:08:25;23.15;;;17.17;;
41952;SDS011;63613;28.200;112.870;2024-03-22T08:10:54;27.60;;;16.88;;
41952;SDS011;63613;28.200;112.870;2024-03-22T08:13:23;20.33;;;16.52;;
41952;SDS011;63613;28.200;112.870;2024-03-22T08:15:52;21.80;;;16.92;;
41952;SDS011;63613;28.200;112.870;2024-03-22T08:18:20;23.20;;;16.90;;
41952;SDS011;63613;28.200;112.870;2024-03-22T08:20:49;25.83;;;17.45;;
41952;SDS011;63613;28.200;112.870;2024-03-22T08:23:18;23.73;;;17.48;;
41952;SDS011;63613;28.200;112.870;2024-03-22T08:25:49;24.40;;;16.98;;
41952;SDS011;63613;28.200;112.870;2024-03-22T08:28:18;24.38;;;16.92;;
41952;SDS011;63613;28.200;112.870;2024-03-22T08:30:47;27.73;;;18.25;;
41952;SDS011;63613;28.200;112.870;2024-03-22T08:33:16;24.45;;;17.10;;
41952;SDS011;63613;28.200;112.870;2024-03-22T08:35:45;22.63;;;16.58;;
41952;SDS011;63613;28.200;112.870;2024-03-22T08:38:15;23.85;;;16.00;;
41952;SDS011;63613;28.200;112.870;2024-03-22T08:40:44;19.70;;;16.38;;
41952;SDS011;63613;28.200;112.870;2024-03-22T08:43:12;24.15;;;16.42;;
41952;SDS011;63613;28.200;112.870;2024-03-22T08:45:41;20.05;;;16.88;;
41952;SDS011;63613;28.200;112.870;2024-03-22T08:48:09;22.05;;;17.38;;
41952;SDS011;63613;28.200;112.870;2024-03-22T08:50:41;21.33;;;16.17;;
41952;SDS011;63613;28.200;112.870;2024-03-22T08:53:10;22.15;;;16.50;;
41952;SDS011;63613;28.200;112.870;2024-03-22T08:55:47;22.13;;;16.30;;
41952;SDS011;63613;28.200;112.870;2024-03-22T08:58:16;20.35;;;14.52;;
41952;SDS011;63613;28.200;112.870;2024-03-22T09:00:46;20.63;;;16.10;;
41952;SDS011;63613;28.200;112.870;2024-03-22T09:03:15;27.73;;;17.27;;
41952;SDS011;63613;28.200;112.870;2024-03-22T09:05:44;25.90;;;15.90;;
41952;SDS011;63613;28.200;112.870;2024-03-22T09:08:12;23.77;;;15.85;;
41952;SDS011;63613;28.200;112.870;2024-03-22T09:10:42;20.00;;;14.75;;
41952;SDS011;63613;28.200;112.870;2024-03-22T09:13:11;18.30;;;15.40;;
41952;SDS011;63613;28.200;112.870;2024-03-22T09:15:40;20.17;;;16.20;;
41952;SDS011;63613;28.200;112.870;2024-03-22T09:18:09;19.38;;;14.85;;
41952;SDS011;63613;28.200;112.870;2024-03-22T09:20:37;17.58;;;14.80;;
41952;SDS011;63613;28.200;112.870;2024-03-22T09:23:07;21.33;;;15.77;;
41952;SDS011;63613;28.200;112.870;2024-03-22T09:25:37;19.80;;;14.48;;
41952;SDS011;63613;28.200;112.870;2024-03-22T09:28:05;20.90;;;13.45;;
41952;SDS011;63613;28.200;112.870;2024-03-22T09:30:39;22.45;;;14.32;;
41952;SDS011;63613;28.200;112.870;2024-03-22T09:35:37;18.88;;;13.50;;
41952;SDS011;63613;28.200;112.870;2024-03-22T09:38:06;18.73;;;12.68;;
41952;SDS011;63613;28.200;112.870;2024-03-22T09:40:37;17.23;;;12.25;;
41952;SDS011;63613;28.200;112.870;2024-03-22T09:43:06;18.25;;;12.90;;
41952;SDS011;63613;28.200;112.870;2024-03-22T09:45:36;18.77;;;12.65;;
41952;SDS011;63613;28.200;112.870;2024-03-22T09:48:07;13.45;;;11.75;;
41952;SDS011;63613;28.200;112.870;2024-03-22T09:50:36;17.33;;;11.75;;
41952;SDS011;63613;28.200;112.870;2024-03-22T09:53:05;14.80;;;11.70;;
41952;SDS011;63613;28.200;112.870;2024-03-22T09:55:35;12.73;;;11.00;;
41952;SDS011;63613;28.200;112.870;2024-03-22T09:58:05;13.43;;;11.13;;
41952;SDS011;63613;28.200;112.870;2024-03-22T10:00:35;15.73;;;10.00;;
41952;SDS011;63613;28.200;112.870;2024-03-22T10:03:04;11.82;;;10.55;;
41952;SDS011;63613;28.200;112.870;2024-03-22T10:05:33;12.65;;;10.45;;
41952;SDS011;63613;28.200;112.870;2024-03-22T10:08:03;11.63;;;10.43;;
41952;SDS011;63613;28.200;112.870;2024-03-22T10:10:32;11.02;;;9.73;;
41952;SDS011;63613;28.200;112.870;2024-03-22T10:13:03;12.65;;;10.77;;
41952;SDS011;63613;28.200;112.870;2024-03-22T10:15:31;14.35;;;10.57;;
41952;SDS011;63613;28.200;112.870;2024-03-22T10:18:00;12.82;;;10.05;;
41952;SDS011;63613;28.200;112.870;2024-03-22T10:20:29;12.90;;;10.25;;
41952;SDS011;63613;28.200;112.870;2024-03-22T10:22:59;11.68;;;9.57;;
41952;SDS011;63613;28.200;112.870;2024-03-22T10:25:29;12.30;;;10.10;;
41952;SDS011;63613;28.200;112.870;2024-03-22T10:27:57;12.63;;;10.90;;
41952;SDS011;63613;28.200;112.870;2024-03-22T10:30:26;15.07;;;10.77;;
41952;SDS011;63613;28.200;112.870;2024-03-22T10:32:57;19.58;;;12.38;;
41952;SDS011;63613;28.200;112.870;2024-03-22T10:35:26;30.13;;;17.80;;
41952;SDS011;63613;28.200;112.870;2024-03-22T10:37:56;33.50;;;19.90;;
41952;SDS011;63613;28.200;112.870;2024-03-22T10:40:25;36.45;;;19.88;;
41952;SDS011;63613;28.200;112.870;2024-03-22T10:42:56;40.35;;;20.48;;
41952;SDS011;63613;28.200;112.870;2024-03-22T10:45:26;34.65;;;19.75;;
41952;SDS011;63613;28.200;112.870;2024-03-22T10:47:55;38.50;;;21.88;;
41952;SDS011;63613;28.200;112.870;2024-03-22T10:50:29;77.18;;;40.92;;
41952;SDS011;63613;28.200;112.870;2024-03-22T10:53:02;69.15;;;41.15;;
41952;SDS011;63613;28.200;112.870;2024-03-22T10:55:35;71.85;;;39.80;;
41952;SDS011;63613;28.200;112.870;2024-03-22T10:58:06;69.13;;;39.70;;
41952;SDS011;63613;28.200;112.870;2024-03-22T11:00:41;73.90;;;40.83;;
41952;SDS011;63613;28.200;112.870;2024-03-22T11:03:10;74.13;;;41.22;;
41952;SDS011;63613;28.200;112.870;2024-03-22T11:05:48;74.60;;;40.03;;
41952;SDS011;63613;28.200;112.870;2024-03-22T11:08:29;73.80;;;39.78;;
41952;SDS011;63613;28.200;112.870;2024-03-22T11:10:58;70.07;;;38.47;;
41952;SDS011;63613;28.200;112.870;2024-03-22T11:13:39;68.72;;;36.38;;
41952;SDS011;63613;28.200;112.870;2024-03-22T11:16:09;59.90;;;36.30;;
41952;SDS011;63613;28.200;112.870;2024-03-22T11:18:38;66.63;;;34.53;;
41952;SDS011;63613;28.200;112.870;2024-03-22T11:21:07;61.42;;;33.80;;
41952;SDS011;63613;28.200;112.870;2024-03-22T11:23:39;54.47;;;34.50;;
41952;SDS011;63613;28.200;112.870;2024-03-22T11:26:07;54.35;;;30.13;;
41952;SDS011;63613;28.200;112.870;2024-03-22T11:28:36;51.83;;;30.15;;
41952;SDS011;63613;28.200;112.870;2024-03-22T11:31:06;59.65;;;30.00;;
41952;SDS011;63613;28.200;112.870;2024-03-22T11:33:35;46.35;;;28.33;;
41952;SDS011;63613;28.200;112.870;2024-03-22T11:36:03;47.30;;;28.80;;
41952;SDS011;63613;28.200;112.870;2024-03-22T11:38:32;45.45;;;27.95;;
41952;SDS011;63613;28.200;112.870;2024-03-22T11:41:01;47.10;;;27.67;;
41952;SDS011;63613;28.200;112.870;2024-03-22T11:43:31;39.72;;;23.30;;
41952;SDS011;63613;28.200;112.870;2024-03-22T11:46:00;43.70;;;24.85;;
41952;SDS011;63613;28.200;112.870;2024-03-22T11:48:29;42.55;;;22.52;;
41952;SDS011;63613;28.200;112.870;2024-03-22T11:50:58;37.80;;;23.95;;
41952;SDS011;63613;28.200;112.870;2024-03-22T11:53:27;39.55;;;23.40;;
41952;SDS011;63613;28.200;112.870;2024-03-22T11:55:58;40.00;;;23.73;;
41952;SDS011;63613;28.200;112.870;2024-03-22T11:58:29;35.22;;;22.20;;
41952;SDS011;63613;28.200;112.870;2024-03-22T12:00:58;36.65;;;21.13;;
41952;SDS011;63613;28.200;112.870;2024-03-22T12:03:27;32.47;;;19.60;;
41952;SDS011;63613;28.200;112.870;2024-03-22T12:05:57;36.35;;;21.88;;
41952;SDS011;63613;28.200;112.870;2024-03-22T12:08:26;33.58;;;20.70;;
41952;SDS011;63613;28.200;112.870;2024-03-22T12:10:55;33.17;;;18.50;;
41952;SDS011;63613;28.200;112.870;2024-03-22T12:13:24;30.98;;;19.27;;
41952;SDS011;63613;28.200;112.870;2024-03-22T12:15:52;31.35;;;18.65;;
41952;SDS011;63613;28.200;112.870;2024-03-22T12:18:21;32.72;;;19.17;;
41952;SDS011;63613;28.200;112.870;2024-03-22T12:20:51;30.38;;;18.33;;
41952;SDS011;63613;28.200;112.870;2024-03-22T12:23:20;29.55;;;17.85;;
41952;SDS011;63613;28.200;112.870;2024-03-22T12:25:50;28.08;;;17.38;;
41952;SDS011;63613;28.200;112.870;2024-03-22T12:28:20;30.45;;;18.38;;
41952;SDS011;63613;28.200;112.870;2024-03-22T12:30:50;25.75;;;17.13;;
41952;SDS011;63613;28.200;112.870;2024-03-22T12:33:27;29.00;;;17.50;;
41952;SDS011;63613;28.200;112.870;2024-03-22T12:35:55;27.17;;;16.98;;
41952;SDS011;63613;28.200;112.870;2024-03-22T12:38:24;29.42;;;16.33;;
41952;SDS011;63613;28.200;112.870;2024-03-22T12:40:54;25.58;;;15.82;;
41952;SDS011;63613;28.200;112.870;2024-03-22T12:43:22;22.75;;;14.70;;
41952;SDS011;63613;28.200;112.870;2024-03-22T12:45:51;24.55;;;14.90;;
41952;SDS011;63613;28.200;112.870;2024-03-22T12:48:20;20.38;;;13.80;;
41952;SDS011;63613;28.200;112.870;2024-03-22T12:50:49;23.58;;;14.63;;
41952;SDS011;63613;28.200;112.870;2024-03-22T12:53:18;24.60;;;14.45;;
41952;SDS011;63613;28.200;112.870;2024-03-22T12:55:47;22.45;;;14.15;;
41952;SDS011;63613;28.200;112.870;2024-03-22T12:58:16;20.15;;;13.18;;
41952;SDS011;63613;28.200;112.870;2024-03-22T13:00:45;21.70;;;14.35;;
41952;SDS011;63613;28.200;112.870;2024-03-22T13:03:13;21.77;;;13.35;;
41952;SDS011;63613;28.200;112.870;2024-03-22T13:05:43;22.83;;;14.50;;
41952;SDS011;63613;28.200;112.870;2024-03-22T13:08:12;19.73;;;13.00;;
41952;SDS011;63613;28.200;112.870;2024-03-22T13:10:40;19.83;;;13.43;;
41952;SDS011;63613;28.200;112.870;2024-03-22T13:13:11;20.92;;;13.82;;
41952;SDS011;63613;28.200;112.870;2024-03-22T13:15:42;21.25;;;15.25;;
41952;SDS011;63613;28.200;112.870;2024-03-22T13:18:13;19.85;;;13.98;;
41952;SDS011;63613;28.200;112.870;2024-03-22T13:20:42;17.70;;;12.90;;
41952;SDS011;63613;28.200;112.870;2024-03-22T13:23:10;19.58;;;12.68;;
41952;SDS011;63613;28.200;112.870;2024-03-22T13:25:40;19.02;;;13.57;;
41952;SDS011;63613;28.200;112.870;2024-03-22T13:28:10;20.90;;;13.30;;
41952;SDS011;63613;28.200;112.870;2024-03-22T13:30:38;20.48;;;13.27;;
41952;SDS011;63613;28.200;112.870;2024-03-22T13:33:08;17.42;;;12.65;;
41952;SDS011;63613;28.200;112.870;2024-03-22T13:35:37;18.30;;;12.80;;
41952;SDS011;63613;28.200;112.870;2024-03-22T13:38:07;16.25;;;11.93;;
41952;SDS011;63613;28.200;112.870;2024-03-22T13:40:40;17.25;;;11.93;;
41952;SDS011;63613;28.200;112.870;2024-03-22T13:43:10;18.77;;;12.45;;
41952;SDS011;63613;28.200;112.870;2024-03-22T13:45:40;18.77;;;13.02;;
41952;SDS011;63613;28.200;112.870;2024-03-22T13:48:11;15.65;;;11.35;;
41952;SDS011;63613;28.200;112.870;2024-03-22T13:50:41;15.48;;;11.82;;
41952;SDS011;63613;28.200;112.870;2024-03-22T13:53:10;17.25;;;12.10;;
41952;SDS011;63613;28.200;112.870;2024-03-22T13:55:42;18.52;;;12.07;;
41952;SDS011;63613;28.200;112.870;2024-03-22T13:58:11;16.33;;;11.80;;
41952;SDS011;63613;28.200;112.870;2024-03-22T14:00:40;16.73;;;11.80;;
41952;SDS011;63613;28.200;112.870;2024-03-22T14:03:09;13.82;;;11.40;;
41952;SDS011;63613;28.200;112.870;2024-03-22T14:05:38;16.90;;;10.88;;
41952;SDS011;63613;28.200;112.870;2024-03-22T14:08:07;16.92;;;12.07;;
41952;SDS011;63613;28.200;112.870;2024-03-22T14:10:36;15.98;;;10.75;;